sensor_id;sensor_type;location;lat;lon;timestamp;P1;durP1;ratioP1;P2;durP2;ratioP2
8415;SDS011;4245;42.120;24.732;2023-03-01T00:01:27;3.70;;;3.00;;
8415;SDS011;4245;42.120;24.732;2023-03-01T00:03:56;3.40;;;3.00;;
8415;SDS011;4245;42.120;24.732;2023-03-01T00:06:24;5.00;;;3.30;;
8415;SDS011;4245;42.120;24.732;2023-03-01T00:08:51;3.80;;;2.90;;
8415;SDS011;4245;42.120;24.732;2023-03-01T00:11:19;3.83;;;3.10;;
8415;SDS011;4245;42.120;24.732;2023-03-01T00:13:47;3.90;;;3.27;;
8415;SDS011;4245;42.120;24.732;2023-03-01T00:16:16;4.80;;;3.27;;
8415;SDS011;4245;42.120;24.732;2023-03-01T00:18:45;4.23;;;3.30;;
8415;SDS011;4245;42.120;24.732;2023-03-01T00:21:14;4.60;;;3.17;;
8415;SDS011;4245;42.120;24.732;2023-03-01T00:23:41;4.50;;;2.93;;
8415;SDS011;4245;42.120;24.732;2023-03-01T00:26:08;4.17;;;3.10;;
8415;SDS011;4245;42.120;24.732;2023-03-01T00:28:38;4.80;;;3.33;;
8415;SDS011;4245;42.120;24.732;2023-03-01T00:31:06;4.73;;;3.43;;
8415;SDS011;4245;42.120;24.732;2023-03-01T00:33:34;4.17;;;3.00;;
8415;SDS011;4245;42.120;24.732;2023-03-01T00:36:01;6.97;;;4.17;;
8415;SDS011;4245;42.120;24.732;2023-03-01T00:38:29;6.07;;;3.83;;
8415;SDS011;4245;42.120;24.732;2023-03-01T00:41:02;5.93;;;4.03;;
8415;SDS011;4245;42.120;24.732;2023-03-01T00:43:30;3.77;;;3.33;;
8415;SDS011;4245;42.120;24.732;2023-03-01T00:46:01;5.60;;;3.03;;
8415;SDS011;4245;42.120;24.732;2023-03-01T00:48:28;3.40;;;2.93;;
8415;SDS011;4245;42.120;24.732;2023-03-01T00:50:55;4.33;;;3.10;;
8415;SDS011;4245;42.120;24.732;2023-03-01T00:53:22;4.40;;;3.30;;
8415;SDS011;4245;42.120;24.732;2023-03-01T00:55:50;3.47;;;2.70;;
8415;SDS011;4245;42.120;24.732;2023-03-01T00:58:17;3.50;;;3.00;;
8415;SDS011;4245;42.120;24.732;2023-03-01T01:00:44;4.87;;;3.30;;
8415;SDS011;4245;42.120;24.732;2023-03-01T01:03:11;4.77;;;3.70;;
8415;SDS011;4245;42.120;24.732;2023-03-01T01:05:37;4.43;;;3.10;;
8415;SDS011;4245;42.120;24.732;2023-03-01T01:08:04;3.77;;;2.87;;
8415;SDS011;4245;42.120;24.732;2023-03-01T01:10:33;3.67;;;2.87;;
8415;SDS011;4245;42.120;24.732;2023-03-01T01:13:01;4.10;;;2.90;;
8415;SDS011;4245;42.120;24.732;2023-03-01T01:15:28;3.90;;;2.70;;
8415;SDS011;4245;42.120;24.732;2023-03-01T01:17:55;3.17;;;2.63;;
8415;SDS011;4245;42.120;24.732;2023-03-01T01:20:22;3.50;;;2.87;;
8415;SDS011;4245;42.120;24.732;2023-03-01T01:22:49;3.50;;;2.77;;
8415;SDS011;4245;42.120;24.732;2023-03-01T01:25:16;4.83;;;2.80;;
8415;SDS011;4245;42.120;24.732;2023-03-01T01:27:43;3.47;;;2.67;;
8415;SDS011;4245;42.120;24.732;2023-03-01T01:30:12;3.37;;;2.80;;
8415;SDS011;4245;42.120;24.732;2023-03-01T01:32:39;3.47;;;2.77;;
8415;SDS011;4245;42.120;24.732;2023-03-01T01:35:07;3.40;;;2.63;;
8415;SDS011;4245;42.120;24.732;2023-03-01T01:37:34;4.23;;;3.10;;
8415;SDS011;4245;42.120;24.732;2023-03-01T01:40:01;4.03;;;2.90;;
8415;SDS011;4245;42.120;24.732;2023-03-01T01:42:29;4.83;;;3.40;;
8415;SDS011;4245;42.120;24.732;2023-03-01T01:45:26;6.20;;;3.93;;
8415;SDS011;4245;42.120;24.732;2023-03-01T01:47:59;9.80;;;4.40;;
8415;SDS011;4245;42.120;24.732;2023-03-01T01:50:29;7.77;;;4.23;;
8415;SDS011;4245;42.120;24.732;2023-03-01T01:53:03;6.77;;;3.83;;
8415;SDS011;4245;42.120;24.732;2023-03-01T01:55:35;6.43;;;4.13;;
8415;SDS011;4245;42.120;24.732;2023-03-01T01:58:06;4.03;;;3.20;;
8415;SDS011;4245;42.120;24.732;2023-03-01T02:00:38;4.87;;;3.33;;
8415;SDS011;4245;42.120;24.732;2023-03-01T02:03:07;4.93;;;3.47;;
8415;SDS011;4245;42.120;24.732;2023-03-01T02:05:37;4.43;;;3.50;;
8415;SDS011;4245;42.120;24.732;2023-03-01T02:08:08;4.20;;;3.43;;
8415;SDS011;4245;42.120;24.732;2023-03-01T02:10:38;5.77;;;4.00;;
8415;SDS011;4245;42.120;24.732;2023-03-01T02:13:07;3.73;;;3.30;;
8415;SDS011;4245;42.120;24.732;2023-03-01T02:15:34;5.10;;;3.67;;
8415;SDS011;4245;42.120;24.732;2023-03-01T02:18:05;4.90;;;3.53;;
8415;SDS011;4245;42.120;24.732;2023-03-01T02:20:34;5.77;;;3.47;;
8415;SDS011;4245;42.120;24.732;2023-03-01T02:23:06;4.37;;;3.57;;
8415;SDS011;4245;42.120;24.732;2023-03-01T02:25:36;4.17;;;3.17;;
8415;SDS011;4245;42.120;24.732;2023-03-01T02:28:19;5.23;;;3.13;;
8415;SDS011;4245;42.120;24.732;2023-03-01T02:31:00;3.97;;;3.20;;
8415;SDS011;4245;42.120;24.732;2023-03-01T02:33:47;6.23;;;3.50;;
8415;SDS011;4245;42.120;24.732;2023-03-01T02:36:15;6.17;;;4.07;;
8415;SDS011;4245;42.120;24.732;2023-03-01T02:38:45;4.17;;;3.57;;
8415;SDS011;4245;42.120;24.732;2023-03-01T02:41:14;5.40;;;3.57;;
8415;SDS011;4245;42.120;24.732;2023-03-01T02:43:44;5.93;;;4.27;;
8415;SDS011;4245;42.120;24.732;2023-03-01T02:46:13;4.80;;;3.53;;
8415;SDS011;4245;42.120;24.732;2023-03-01T02:48:43;8.07;;;4.00;;
8415;SDS011;4245;42.120;24.732;2023-03-01T02:51:16;4.77;;;3.70;;
8415;SDS011;4245;42.120;24.732;2023-03-01T02:54:05;4.53;;;3.77;;
8415;SDS011;4245;42.120;24.732;2023-03-01T02:56:38;4.53;;;3.57;;
8415;SDS011;4245;42.120;24.732;2023-03-01T02:59:07;6.33;;;3.43;;
8415;SDS011;4245;42.120;24.732;2023-03-01T03:01:34;4.77;;;3.67;;
8415;SDS011;4245;42.120;24.732;2023-03-01T03:04:06;4.30;;;3.40;;
8415;SDS011;4245;42.120;24.732;2023-03-01T03:06:34;6.93;;;4.60;;
8415;SDS011;4245;42.120;24.732;2023-03-01T03:09:02;6.23;;;4.40;;
8415;SDS011;4245;42.120;24.732;2023-03-01T03:11:30;6.43;;;4.13;;
8415;SDS011;4245;42.120;24.732;2023-03-01T03:13:58;6.23;;;4.40;;
8415;SDS011;4245;42.120;24.732;2023-03-01T03:16:26;4.97;;;4.10;;
8415;SDS011;4245;42.120;24.732;2023-03-01T03:18:55;5.80;;;3.93;;
8415;SDS011;4245;42.120;24.732;2023-03-01T03:21:30;5.93;;;3.90;;
8415;SDS011;4245;42.120;24.732;2023-03-01T03:23:57;6.60;;;4.03;;
8415;SDS011;4245;42.120;24.732;2023-03-01T03:26:24;7.63;;;3.87;;
8415;SDS011;4245;42.120;24.732;2023-03-01T03:28:51;5.60;;;4.30;;
8415;SDS011;4245;42.120;24.732;2023-03-01T03:31:17;5.83;;;4.07;;
8415;SDS011;4245;42.120;24.732;2023-03-01T03:33:46;8.43;;;4.37;;
8415;SDS011;4245;42.120;24.732;2023-03-01T03:36:14;6.40;;;4.70;;
8415;SDS011;4245;42.120;24.732;2023-03-01T03:38:43;7.27;;;4.37;;
8415;SDS011;4245;42.120;24.732;2023-03-01T03:41:11;7.53;;;5.00;;
8415;SDS011;4245;42.120;24.732;2023-03-01T03:43:39;7.73;;;5.17;;
8415;SDS011;4245;42.120;24.732;2023-03-01T03:46:08;5.43;;;3.97;;
8415;SDS011;4245;42.120;24.732;2023-03-01T03:48:36;5.60;;;4.27;;
8415;SDS011;4245;42.120;24.732;2023-03-01T03:51:05;5.40;;;4.20;;
8415;SDS011;4245;42.120;24.732;2023-03-01T03:53:33;6.47;;;4.23;;
8415;SDS011;4245;42.120;24.732;2023-03-01T03:56:00;6.07;;;4.10;;
8415;SDS011;4245;42.120;24.732;2023-03-01T03:58:27;5.50;;;3.90;;
8415;SDS011;4245;42.120;24.732;2023-03-01T04:00:54;5.30;;;4.07;;
8415;SDS011;4245;42.120;24.732;2023-03-01T04:03:23;6.23;;;4.37;;
8415;SDS011;4245;42.120;24.732;2023-03-01T04:05:51;4.87;;;3.50;;
8415;SDS011;4245;42.120;24.732;2023-03-01T04:08:20;4.87;;;4.03;;
8415;SDS011;4245;42.120;24.732;2023-03-01T04:10:49;5.13;;;3.63;;
8415;SDS011;4245;42.120;24.732;2023-03-01T04:13:18;6.17;;;4.80;;
8415;SDS011;4245;42.120;24.732;2023-03-01T04:15:46;5.70;;;4.13;;
8415;SDS011;4245;42.120;24.732;2023-03-01T04:18:15;4.63;;;3.50;;
8415;SDS011;4245;42.120;24.732;2023-03-01T04:20:43;5.20;;;3.70;;
8415;SDS011;4245;42.120;24.732;2023-03-01T04:23:12;5.63;;;4.13;;
8415;SDS011;4245;42.120;24.732;2023-03-01T04:25:45;5.10;;;3.93;;
8415;SDS011;4245;42.120;24.732;2023-03-01T04:28:14;5.73;;;4.27;;
8415;SDS011;4245;42.120;24.732;2023-03-01T04:30:41;5.50;;;3.70;;
8415;SDS011;4245;42.120;24.732;2023-03-01T04:33:09;5.77;;;3.97;;
8415;SDS011;4245;42.120;24.732;2023-03-01T04:35:37;6.47;;;4.20;;
8415;SDS011;4245;42.120;24.732;2023-03-01T04:38:05;7.07;;;4.10;;
8415;SDS011;4245;42.120;24.732;2023-03-01T04:40:32;6.93;;;4.50;;
8415;SDS011;4245;42.120;24.732;2023-03-01T04:43:01;4.80;;;3.67;;
8415;SDS011;4245;42.120;24.732;2023-03-01T04:45:29;5.87;;;4.20;;
8415;SDS011;4245;42.120;24.732;2023-03-01T04:47:56;6.73;;;4.23;;
8415;SDS011;4245;42.120;24.732;2023-03-01T04:50:23;6.53;;;4.87;;
8415;SDS011;4245;42.120;24.732;2023-03-01T04:52:50;6.53;;;4.30;;
8415;SDS011;4245;42.120;24.732;2023-03-01T04:55:18;6.93;;;4.40;;
8415;SDS011;4245;42.120;24.732;2023-03-01T04:57:45;8.03;;;4.57;;
8415;SDS011;4245;42.120;24.732;2023-03-01T05:00:15;6.60;;;4.50;;
8415;SDS011;4245;42.120;24.732;2023-03-01T05:02:49;6.13;;;4.43;;
8415;SDS011;4245;42.120;24.732;2023-03-01T05:05:23;7.33;;;5.20;;
8415;SDS011;4245;42.120;24.732;2023-03-01T05:07:55;6.33;;;4.73;;
8415;SDS011;4245;42.120;24.732;2023-03-01T05:10:23;7.13;;;4.97;;
8415;SDS011;4245;42.120;24.732;2023-03-01T05:12:51;9.63;;;5.20;;
8415;SDS011;4245;42.120;24.732;2023-03-01T05:15:20;12.60;;;6.57;;
8415;SDS011;4245;42.120;24.732;2023-03-01T05:17:50;11.23;;;6.17;;
8415;SDS011;4245;42.120;24.732;2023-03-01T05:20:17;9.47;;;6.33;;
8415;SDS011;4245;42.120;24.732;2023-03-01T05:22:48;11.43;;;6.50;;
8415;SDS011;4245;42.120;24.732;2023-03-01T05:25:15;8.07;;;5.63;;
8415;SDS011;4245;42.120;24.732;2023-03-01T05:27:43;8.43;;;5.73;;
8415;SDS011;4245;42.120;24.732;2023-03-01T05:30:10;9.37;;;5.80;;
8415;SDS011;4245;42.120;24.732;2023-03-01T05:32:44;8.17;;;5.47;;
8415;SDS011;4245;42.120;24.732;2023-03-01T05:35:13;13.77;;;6.07;;
8415;SDS011;4245;42.120;24.732;2023-03-01T05:37:41;11.60;;;6.50;;
8415;SDS011;4245;42.120;24.732;2023-03-01T05:40:10;9.20;;;6.60;;
8415;SDS011;4245;42.120;24.732;2023-03-01T05:42:43;9.77;;;6.57;;
8415;SDS011;4245;42.120;24.732;2023-03-01T05:45:11;8.20;;;6.13;;
8415;SDS011;4245;42.120;24.732;2023-03-01T05:47:39;7.87;;;5.60;;
8415;SDS011;4245;42.120;24.732;2023-03-01T05:50:11;9.90;;;7.10;;
8415;SDS011;4245;42.120;24.732;2023-03-01T05:52:43;9.57;;;6.10;;
8415;SDS011;4245;42.120;24.732;2023-03-01T05:55:11;7.07;;;5.57;;
8415;SDS011;4245;42.120;24.732;2023-03-01T05:57:37;9.60;;;6.27;;
8415;SDS011;4245;42.120;24.732;2023-03-01T06:00:05;8.07;;;5.57;;
8415;SDS011;4245;42.120;24.732;2023-03-01T06:02:33;9.33;;;5.90;;
8415;SDS011;4245;42.120;24.732;2023-03-01T06:05:00;12.03;;;6.00;;
8415;SDS011;4245;42.120;24.732;2023-03-01T06:07:29;12.83;;;8.27;;
8415;SDS011;4245;42.120;24.732;2023-03-01T06:09:56;8.93;;;6.03;;
8415;SDS011;4245;42.120;24.732;2023-03-01T06:12:22;8.90;;;6.20;;
8415;SDS011;4245;42.120;24.732;2023-03-01T06:14:49;8.20;;;5.90;;
8415;SDS011;4245;42.120;24.732;2023-03-01T06:17:16;12.37;;;7.90;;
8415;SDS011;4245;42.120;24.732;2023-03-01T06:19:43;11.13;;;7.40;;
8415;SDS011;4245;42.120;24.732;2023-03-01T06:22:10;8.33;;;6.00;;
8415;SDS011;4245;42.120;24.732;2023-03-01T06:24:39;10.40;;;6.30;;
8415;SDS011;4245;42.120;24.732;2023-03-01T06:27:06;9.10;;;6.60;;
8415;SDS011;4245;42.120;24.732;2023-03-01T06:29:33;9.63;;;6.90;;
8415;SDS011;4245;42.120;24.732;2023-03-01T06:32:00;8.80;;;6.10;;
8415;SDS011;4245;42.120;24.732;2023-03-01T06:34:28;8.47;;;6.10;;
8415;SDS011;4245;42.120;24.732;2023-03-01T06:36:55;11.03;;;7.13;;
8415;SDS011;4245;42.120;24.732;2023-03-01T06:39:22;10.37;;;6.53;;
8415;SDS011;4245;42.120;24.732;2023-03-01T06:41:50;13.90;;;8.30;;
8415;SDS011;4245;42.120;24.732;2023-03-01T06:44:17;9.90;;;6.30;;
8415;SDS011;4245;42.120;24.732;2023-03-01T06:46:44;10.50;;;6.53;;
8415;SDS011;4245;42.120;24.732;2023-03-01T06:49:12;7.83;;;5.40;;
8415;SDS011;4245;42.120;24.732;2023-03-01T06:51:39;6.77;;;5.33;;
8415;SDS011;4245;42.120;24.732;2023-03-01T06:54:06;6.93;;;5.23;;
8415;SDS011;4245;42.120;24.732;2023-03-01T06:56:33;6.93;;;5.30;;
8415;SDS011;4245;42.120;24.732;2023-03-01T06:59:01;6.00;;;4.57;;
8415;SDS011;4245;42.120;24.732;2023-03-01T07:01:29;6.53;;;4.60;;
8415;SDS011;4245;42.120;24.732;2023-03-01T07:03:56;7.97;;;5.40;;
8415;SDS011;4245;42.120;24.732;2023-03-01T07:06:23;8.33;;;5.63;;
8415;SDS011;4245;42.120;24.732;2023-03-01T07:08:50;7.93;;;5.67;;
8415;SDS011;4245;42.120;24.732;2023-03-01T07:11:17;11.13;;;5.83;;
8415;SDS011;4245;42.120;24.732;2023-03-01T07:13:44;6.40;;;4.87;;
8415;SDS011;4245;42.120;24.732;2023-03-01T07:16:12;5.60;;;4.20;;
8415;SDS011;4245;42.120;24.732;2023-03-01T07:18:39;5.50;;;3.63;;
8415;SDS011;4245;42.120;24.732;2023-03-01T07:21:07;4.50;;;3.83;;
8415;SDS011;4245;42.120;24.732;2023-03-01T07:23:35;5.53;;;4.00;;
8415;SDS011;4245;42.120;24.732;2023-03-01T07:26:02;6.80;;;3.90;;
8415;SDS011;4245;42.120;24.732;2023-03-01T07:28:30;6.17;;;3.57;;
8415;SDS011;4245;42.120;24.732;2023-03-01T07:31:01;5.57;;;3.77;;
8415;SDS011;4245;42.120;24.732;2023-03-01T07:33:30;7.13;;;4.57;;
8415;SDS011;4245;42.120;24.732;2023-03-01T07:35:57;5.80;;;4.00;;
8415;SDS011;4245;42.120;24.732;2023-03-01T07:38:24;5.73;;;4.53;;
8415;SDS011;4245;42.120;24.732;2023-03-01T07:40:51;5.43;;;4.23;;
8415;SDS011;4245;42.120;24.732;2023-03-01T07:43:18;5.73;;;4.23;;
8415;SDS011;4245;42.120;24.732;2023-03-01T07:45:45;8.57;;;5.17;;
8415;SDS011;4245;42.120;24.732;2023-03-01T07:48:13;6.40;;;5.00;;
8415;SDS011;4245;42.120;24.732;2023-03-01T07:50:41;6.00;;;4.33;;
8415;SDS011;4245;42.120;24.732;2023-03-01T07:53:08;6.17;;;3.77;;
8415;SDS011;4245;42.120;24.732;2023-03-01T07:55:35;9.53;;;5.40;;
8415;SDS011;4245;42.120;24.732;2023-03-01T07:58:02;20.50;;;10.90;;
8415;SDS011;4245;42.120;24.732;2023-03-01T08:00:29;7.00;;;4.50;;
8415;SDS011;4245;42.120;24.732;2023-03-01T08:02:58;6.73;;;3.60;;
8415;SDS011;4245;42.120;24.732;2023-03-01T08:05:26;6.73;;;3.67;;
8415;SDS011;4245;42.120;24.732;2023-03-01T08:07:54;4.33;;;3.37;;
8415;SDS011;4245;42.120;24.732;2023-03-01T08:10:21;5.60;;;3.10;;
8415;SDS011;4245;42.120;24.732;2023-03-01T08:12:50;3.50;;;2.63;;
8415;SDS011;4245;42.120;24.732;2023-03-01T08:15:18;3.10;;;2.53;;
8415;SDS011;4245;42.120;24.732;2023-03-01T08:17:45;2.77;;;2.27;;
8415;SDS011;4245;42.120;24.732;2023-03-01T08:20:12;4.07;;;2.60;;
8415;SDS011;4245;42.120;24.732;2023-03-01T08:22:38;3.13;;;2.57;;
8415;SDS011;4245;42.120;24.732;2023-03-01T08:25:07;4.93;;;2.63;;
8415;SDS011;4245;42.120;24.732;2023-03-01T08:27:34;4.10;;;3.20;;
8415;SDS011;4245;42.120;24.732;2023-03-01T08:30:02;4.63;;;3.60;;
8415;SDS011;4245;42.120;24.732;2023-03-01T08:32:29;5.50;;;3.83;;
8415;SDS011;4245;42.120;24.732;2023-03-01T08:34:56;4.10;;;3.23;;
8415;SDS011;4245;42.120;24.732;2023-03-01T08:37:23;5.37;;;3.03;;
8415;SDS011;4245;42.120;24.732;2023-03-01T08:39:50;3.23;;;2.37;;
8415;SDS011;4245;42.120;24.732;2023-03-01T08:42:18;3.50;;;2.57;;
8415;SDS011;4245;42.120;24.732;2023-03-01T08:44:45;3.60;;;2.30;;
8415;SDS011;4245;42.120;24.732;2023-03-01T08:47:12;2.43;;;2.20;;
8415;SDS011;4245;42.120;24.732;2023-03-01T08:49:40;5.10;;;3.27;;
8415;SDS011;4245;42.120;24.732;2023-03-01T08:52:06;5.63;;;2.77;;
8415;SDS011;4245;42.120;24.732;2023-03-01T08:54:33;8.87;;;7.10;;
8415;SDS011;4245;42.120;24.732;2023-03-01T08:57:01;5.53;;;4.20;;
8415;SDS011;4245;42.120;24.732;2023-03-01T08:59:29;2.60;;;2.20;;
8415;SDS011;4245;42.120;24.732;2023-03-01T09:02:02;3.50;;;2.70;;
8415;SDS011;4245;42.120;24.732;2023-03-01T09:04:29;5.17;;;2.93;;
8415;SDS011;4245;42.120;24.732;2023-03-01T09:06:56;3.47;;;2.67;;
8415;SDS011;4245;42.120;24.732;2023-03-01T09:09:23;3.83;;;2.60;;
8415;SDS011;4245;42.120;24.732;2023-03-01T09:11:50;3.97;;;2.87;;
8415;SDS011;4245;42.120;24.732;2023-03-01T09:14:16;6.47;;;3.10;;
8415;SDS011;4245;42.120;24.732;2023-03-01T09:16:45;5.47;;;3.23;;
8415;SDS011;4245;42.120;24.732;2023-03-01T09:19:12;9.67;;;4.40;;
8415;SDS011;4245;42.120;24.732;2023-03-01T09:21:39;5.90;;;3.37;;
8415;SDS011;4245;42.120;24.732;2023-03-01T09:24:06;6.97;;;3.30;;
8415;SDS011;4245;42.120;24.732;2023-03-01T09:26:39;4.07;;;2.60;;
8415;SDS011;4245;42.120;24.732;2023-03-01T09:29:06;5.17;;;2.57;;
8415;SDS011;4245;42.120;24.732;2023-03-01T09:31:34;6.03;;;2.70;;
8415;SDS011;4245;42.120;24.732;2023-03-01T09:34:03;5.73;;;2.97;;
8415;SDS011;4245;42.120;24.732;2023-03-01T09:36:30;5.40;;;2.70;;
8415;SDS011;4245;42.120;24.732;2023-03-01T09:38:58;4.00;;;2.87;;
8415;SDS011;4245;42.120;24.732;2023-03-01T09:41:33;5.17;;;2.90;;
8415;SDS011;4245;42.120;24.732;2023-03-01T09:44:10;4.80;;;3.60;;
8415;SDS011;4245;42.120;24.732;2023-03-01T09:46:47;4.27;;;3.13;;
8415;SDS011;4245;42.120;24.732;2023-03-01T09:49:17;5.13;;;3.80;;
8415;SDS011;4245;42.120;24.732;2023-03-01T09:51:47;7.37;;;3.63;;
8415;SDS011;4245;42.120;24.732;2023-03-01T09:54:22;3.30;;;2.63;;
8415;SDS011;4245;42.120;24.732;2023-03-01T09:56:53;4.47;;;2.53;;
8415;SDS011;4245;42.120;24.732;2023-03-01T09:59:28;4.07;;;2.60;;
8415;SDS011;4245;42.120;24.732;2023-03-01T10:02:04;4.37;;;2.47;;
8415;SDS011;4245;42.120;24.732;2023-03-01T10:04:49;2.93;;;2.27;;
8415;SDS011;4245;42.120;24.732;2023-03-01T10:07:20;3.93;;;3.13;;
8415;SDS011;4245;42.120;24.732;2023-03-01T10:09:54;5.73;;;3.57;;
8415;SDS011;4245;42.120;24.732;2023-03-01T10:12:22;6.33;;;4.00;;
8415;SDS011;4245;42.120;24.732;2023-03-01T10:14:53;8.60;;;5.23;;
8415;SDS011;4245;42.120;24.732;2023-03-01T10:17:26;8.00;;;5.67;;
8415;SDS011;4245;42.120;24.732;2023-03-01T10:20:05;13.07;;;7.03;;
8415;SDS011;4245;42.120;24.732;2023-03-01T10:22:42;9.90;;;5.93;;
8415;SDS011;4245;42.120;24.732;2023-03-01T10:25:13;9.40;;;5.47;;
8415;SDS011;4245;42.120;24.732;2023-03-01T10:27:43;7.43;;;5.13;;
8415;SDS011;4245;42.120;24.732;2023-03-01T10:30:19;5.97;;;4.13;;
8415;SDS011;4245;42.120;24.732;2023-03-01T10:32:48;5.77;;;3.90;;
8415;SDS011;4245;42.120;24.732;2023-03-01T10:35:20;5.37;;;3.80;;
8415;SDS011;4245;42.120;24.732;2023-03-01T10:37:58;8.40;;;6.47;;
8415;SDS011;4245;42.120;24.732;2023-03-01T10:40:30;16.10;;;9.77;;
8415;SDS011;4245;42.120;24.732;2023-03-01T10:42:58;5.20;;;3.73;;
8415;SDS011;4245;42.120;24.732;2023-03-01T10:45:30;7.60;;;2.50;;
8415;SDS011;4245;42.120;24.732;2023-03-01T10:48:08;4.10;;;2.43;;
8415;SDS011;4245;42.120;24.732;2023-03-01T10:50:41;3.97;;;2.20;;
8415;SDS011;4245;42.120;24.732;2023-03-01T10:53:20;5.77;;;3.00;;
8415;SDS011;4245;42.120;24.732;2023-03-01T10:55:56;5.20;;;3.43;;
8415;SDS011;4245;42.120;24.732;2023-03-01T10:58:26;4.63;;;2.50;;
8415;SDS011;4245;42.120;24.732;2023-03-01T11:00:54;4.10;;;2.70;;
8415;SDS011;4245;42.120;24.732;2023-03-01T11:03:23;4.33;;;2.90;;
8415;SDS011;4245;42.120;24.732;2023-03-01T11:05:54;6.33;;;3.70;;
8415;SDS011;4245;42.120;24.732;2023-03-01T11:08:30;6.33;;;3.50;;
8415;SDS011;4245;42.120;24.732;2023-03-01T11:11:18;5.83;;;2.90;;
8415;SDS011;4245;42.120;24.732;2023-03-01T11:13:52;5.33;;;3.20;;
8415;SDS011;4245;42.120;24.732;2023-03-01T11:16:28;5.93;;;3.90;;
8415;SDS011;4245;42.120;24.732;2023-03-01T11:19:00;7.07;;;3.90;;
8415;SDS011;4245;42.120;24.732;2023-03-01T11:21:42;10.13;;;4.90;;
8415;SDS011;4245;42.120;24.732;2023-03-01T11:24:22;6.67;;;3.70;;
8415;SDS011;4245;42.120;24.732;2023-03-01T11:26:55;6.37;;;3.07;;
8415;SDS011;4245;42.120;24.732;2023-03-01T11:29:26;4.87;;;3.40;;
8415;SDS011;4245;42.120;24.732;2023-03-01T11:31:57;6.17;;;4.20;;
8415;SDS011;4245;42.120;24.732;2023-03-01T11:34:32;8.47;;;5.03;;
8415;SDS011;4245;42.120;24.732;2023-03-01T11:37:11;9.50;;;5.90;;
8415;SDS011;4245;42.120;24.732;2023-03-01T11:39:50;10.10;;;6.63;;
8415;SDS011;4245;42.120;24.732;2023-03-01T11:42:23;10.50;;;6.73;;
8415;SDS011;4245;42.120;24.732;2023-03-01T11:44:59;10.57;;;6.93;;
8415;SDS011;4245;42.120;24.732;2023-03-01T11:47:37;10.90;;;6.37;;
8415;SDS011;4245;42.120;24.732;2023-03-01T11:50:19;6.37;;;4.90;;
8415;SDS011;4245;42.120;24.732;2023-03-01T11:52:59;5.83;;;3.73;;
8415;SDS011;4245;42.120;24.732;2023-03-01T11:55:40;6.67;;;2.90;;
8415;SDS011;4245;42.120;24.732;2023-03-01T11:58:19;6.03;;;2.90;;
8415;SDS011;4245;42.120;24.732;2023-03-01T12:00:57;3.50;;;2.83;;
8415;SDS011;4245;42.120;24.732;2023-03-01T12:03:43;4.10;;;3.27;;
8415;SDS011;4245;42.120;24.732;2023-03-01T12:06:28;3.77;;;2.80;;
8415;SDS011;4245;42.120;24.732;2023-03-01T12:09:20;3.87;;;2.97;;
8415;SDS011;4245;42.120;24.732;2023-03-01T12:12:05;4.93;;;3.07;;
8415;SDS011;4245;42.120;24.732;2023-03-01T12:14:48;5.33;;;3.07;;
8415;SDS011;4245;42.120;24.732;2023-03-01T12:17:34;5.20;;;3.90;;
8415;SDS011;4245;42.120;24.732;2023-03-01T12:20:14;5.87;;;4.03;;
8415;SDS011;4245;42.120;24.732;2023-03-01T12:22:55;5.17;;;4.17;;
8415;SDS011;4245;42.120;24.732;2023-03-01T12:25:41;3.60;;;3.20;;
8415;SDS011;4245;42.120;24.732;2023-03-01T12:28:18;3.67;;;2.93;;
8415;SDS011;4245;42.120;24.732;2023-03-01T12:31:01;4.43;;;3.17;;
8415;SDS011;4245;42.120;24.732;2023-03-01T12:33:54;5.97;;;4.30;;
8415;SDS011;4245;42.120;24.732;2023-03-01T12:39:24;11.67;;;6.40;;
8415;SDS011;4245;42.120;24.732;2023-03-01T12:42:07;10.33;;;4.83;;
8415;SDS011;4245;42.120;24.732;2023-03-01T12:44:50;6.97;;;4.20;;
8415;SDS011;4245;42.120;24.732;2023-03-01T12:47:36;7.40;;;4.67;;
8415;SDS011;4245;42.120;24.732;2023-03-01T12:50:17;8.53;;;4.33;;
8415;SDS011;4245;42.120;24.732;2023-03-01T12:52:47;7.53;;;4.47;;
8415;SDS011;4245;42.120;24.732;2023-03-01T12:55:24;7.67;;;4.63;;
8415;SDS011;4245;42.120;24.732;2023-03-01T12:58:00;6.33;;;4.57;;
8415;SDS011;4245;42.120;24.732;2023-03-01T13:00:31;9.33;;;4.97;;
8415;SDS011;4245;42.120;24.732;2023-03-01T13:03:09;7.10;;;4.27;;
8415;SDS011;4245;42.120;24.732;2023-03-01T13:05:48;14.73;;;6.63;;
8415;SDS011;4245;42.120;24.732;2023-03-01T13:08:31;6.93;;;4.20;;
8415;SDS011;4245;42.120;24.732;2023-03-01T13:11:03;5.47;;;3.57;;
8415;SDS011;4245;42.120;24.732;2023-03-01T13:13:33;9.63;;;6.63;;
8415;SDS011;4245;42.120;24.732;2023-03-01T13:18:47;6.40;;;3.90;;
8415;SDS011;4245;42.120;24.732;2023-03-01T13:21:14;7.23;;;4.33;;
8415;SDS011;4245;42.120;24.732;2023-03-01T13:23:56;7.57;;;4.40;;
8415;SDS011;4245;42.120;24.732;2023-03-01T13:26:23;7.47;;;4.50;;
8415;SDS011;4245;42.120;24.732;2023-03-01T13:28:55;5.87;;;4.53;;
8415;SDS011;4245;42.120;24.732;2023-03-01T13:37:20;6.47;;;4.40;;
8415;SDS011;4245;42.120;24.732;2023-03-01T13:39:56;5.90;;;4.40;;
8415;SDS011;4245;42.120;24.732;2023-03-01T13:42:30;5.20;;;4.17;;
8415;SDS011;4245;42.120;24.732;2023-03-01T13:48:03;4.00;;;3.47;;
8415;SDS011;4245;42.120;24.732;2023-03-01T13:50:38;4.73;;;3.37;;
8415;SDS011;4245;42.120;24.732;2023-03-01T13:53:14;5.63;;;3.90;;
8415;SDS011;4245;42.120;24.732;2023-03-01T13:55:45;5.57;;;4.80;;
8415;SDS011;4245;42.120;24.732;2023-03-01T13:58:15;6.87;;;4.33;;
8415;SDS011;4245;42.120;24.732;2023-03-01T14:00:55;6.60;;;4.03;;
8415;SDS011;4245;42.120;24.732;2023-03-01T14:03:23;4.47;;;3.60;;
8415;SDS011;4245;42.120;24.732;2023-03-01T14:05:58;4.33;;;3.67;;
8415;SDS011;4245;42.120;24.732;2023-03-01T14:08:29;6.03;;;4.07;;
8415;SDS011;4245;42.120;24.732;2023-03-01T14:11:00;8.90;;;4.20;;
8415;SDS011;4245;42.120;24.732;2023-03-01T14:13:48;8.83;;;4.23;;
8415;SDS011;4245;42.120;24.732;2023-03-01T14:16:30;8.37;;;5.77;;
8415;SDS011;4245;42.120;24.732;2023-03-01T14:19:14;6.90;;;4.90;;
8415;SDS011;4245;42.120;24.732;2023-03-01T14:21:43;6.43;;;4.67;;
8415;SDS011;4245;42.120;24.732;2023-03-01T14:24:16;8.53;;;4.70;;
8415;SDS011;4245;42.120;24.732;2023-03-01T14:26:44;6.33;;;4.67;;
8415;SDS011;4245;42.120;24.732;2023-03-01T14:29:25;6.87;;;4.40;;
8415;SDS011;4245;42.120;24.732;2023-03-01T14:31:55;7.67;;;5.33;;
8415;SDS011;4245;42.120;24.732;2023-03-01T14:34:22;13.33;;;7.20;;
8415;SDS011;4245;42.120;24.732;2023-03-01T14:36:50;14.87;;;10.10;;
8415;SDS011;4245;42.120;24.732;2023-03-01T14:39:18;16.00;;;9.87;;
8415;SDS011;4245;42.120;24.732;2023-03-01T14:41:50;14.53;;;9.87;;
8415;SDS011;4245;42.120;24.732;2023-03-01T14:44:19;12.53;;;9.10;;
8415;SDS011;4245;42.120;24.732;2023-03-01T14:46:51;12.33;;;8.80;;
8415;SDS011;4245;42.120;24.732;2023-03-01T14:49:23;9.53;;;6.70;;
8415;SDS011;4245;42.120;24.732;2023-03-01T14:51:53;11.60;;;7.80;;
8415;SDS011;4245;42.120;24.732;2023-03-01T14:54:26;13.80;;;8.30;;
8415;SDS011;4245;42.120;24.732;2023-03-01T14:56:57;12.43;;;8.80;;
8415;SDS011;4245;42.120;24.732;2023-03-01T14:59:27;13.77;;;10.00;;
8415;SDS011;4245;42.120;24.732;2023-03-01T15:01:55;14.17;;;9.27;;
8415;SDS011;4245;42.120;24.732;2023-03-01T15:04:26;13.67;;;9.33;;
8415;SDS011;4245;42.120;24.732;2023-03-01T15:06:55;16.60;;;9.70;;
8415;SDS011;4245;42.120;24.732;2023-03-01T15:09:36;13.07;;;8.77;;
8415;SDS011;4245;42.120;24.732;2023-03-01T15:15:00;11.90;;;8.53;;
8415;SDS011;4245;42.120;24.732;2023-03-01T15:17:30;16.83;;;10.50;;
8415;SDS011;4245;42.120;24.732;2023-03-01T15:19:59;19.23;;;11.23;;
8415;SDS011;4245;42.120;24.732;2023-03-01T15:22:28;17.90;;;11.07;;
8415;SDS011;4245;42.120;24.732;2023-03-01T15:24:55;16.53;;;10.43;;
8415;SDS011;4245;42.120;24.732;2023-03-01T15:27:23;14.00;;;10.13;;
8415;SDS011;4245;42.120;24.732;2023-03-01T15:29:52;13.67;;;9.20;;
8415;SDS011;4245;42.120;24.732;2023-03-01T15:32:25;15.07;;;8.87;;
8415;SDS011;4245;42.120;24.732;2023-03-01T15:34:55;14.50;;;9.43;;
8415;SDS011;4245;42.120;24.732;2023-03-01T15:37:40;10.60;;;7.90;;
8415;SDS011;4245;42.120;24.732;2023-03-01T15:40:19;10.77;;;6.93;;